sensor_id;sensor_type;location;lat;lon;timestamp;P1;durP1;ratioP1;P2;durP2;ratioP2
46563;SDS011;32291;52.010;4.446;2023-11-21T00:00:42;24.00;;;11.57;;
46563;SDS011;32291;52.010;4.446;2023-11-21T00:01:49;20.63;;;11.35;;
46563;SDS011;32291;52.010;4.446;2023-11-21T00:02:56;17.55;;;11.25;;
46563;SDS011;32291;52.010;4.446;2023-11-21T00:03:58;19.52;;;13.23;;
46563;SDS011;32291;52.010;4.446;2023-11-21T00:05:09;20.48;;;11.25;;
46563;SDS011;32291;52.010;4.446;2023-11-21T00:06:20;14.80;;;10.13;;
46563;SDS011;32291;52.010;4.446;2023-11-21T00:07:22;20.40;;;11.48;;
46563;SDS011;32291;52.010;4.446;2023-11-21T00:08:28;17.70;;;11.75;;
46563;SDS011;32291;52.010;4.446;2023-11-21T00:09:31;19.30;;;11.27;;
46563;SDS011;32291;52.010;4.446;2023-11-21T00:10:39;17.73;;;10.65;;
46563;SDS011;32291;52.010;4.446;2023-11-21T00:11:45;15.15;;;10.50;;
46563;SDS011;32291;52.010;4.446;2023-11-21T00:12:52;13.07;;;10.13;;
46563;SDS011;32291;52.010;4.446;2023-11-21T00:13:56;17.58;;;9.77;;
46563;SDS011;32291;52.010;4.446;2023-11-21T00:15:03;15.13;;;10.02;;
46563;SDS011;32291;52.010;4.446;2023-11-21T00:16:12;19.80;;;11.30;;
46563;SDS011;32291;52.010;4.446;2023-11-21T00:17:19;13.65;;;9.02;;
46563;SDS011;32291;52.010;4.446;2023-11-21T00:18:25;13.80;;;9.52;;
46563;SDS011;32291;52.010;4.446;2023-11-21T00:19:27;17.27;;;10.57;;
46563;SDS011;32291;52.010;4.446;2023-11-21T00:20:34;13.23;;;9.82;;
46563;SDS011;32291;52.010;4.446;2023-11-21T00:21:42;11.68;;;9.25;;
46563;SDS011;32291;52.010;4.446;2023-11-21T00:22:47;13.93;;;9.75;;
46563;SDS011;32291;52.010;4.446;2023-11-21T00:23:54;15.35;;;9.45;;
46563;SDS011;32291;52.010;4.446;2023-11-21T00:25:01;15.57;;;9.55;;
46563;SDS011;32291;52.010;4.446;2023-11-21T00:26:09;11.18;;;9.32;;
46563;SDS011;32291;52.010;4.446;2023-11-21T00:27:16;12.57;;;9.55;;
46563;SDS011;32291;52.010;4.446;2023-11-21T00:28:18;14.30;;;9.20;;
46563;SDS011;32291;52.010;4.446;2023-11-21T00:29:25;14.63;;;9.65;;
46563;SDS011;32291;52.010;4.446;2023-11-21T00:30:27;15.10;;;9.45;;
46563;SDS011;32291;52.010;4.446;2023-11-21T00:31:35;14.48;;;9.00;;
46563;SDS011;32291;52.010;4.446;2023-11-21T00:32:44;15.38;;;9.43;;
46563;SDS011;32291;52.010;4.446;2023-11-21T00:33:51;15.50;;;9.80;;
46563;SDS011;32291;52.010;4.446;2023-11-21T00:35:00;12.85;;;9.55;;
46563;SDS011;32291;52.010;4.446;2023-11-21T00:36:07;13.70;;;9.15;;
46563;SDS011;32291;52.010;4.446;2023-11-21T00:37:15;17.77;;;9.65;;
46563;SDS011;32291;52.010;4.446;2023-11-21T00:38:22;14.98;;;9.45;;
46563;SDS011;32291;52.010;4.446;2023-11-21T00:39:29;13.82;;;8.60;;
46563;SDS011;32291;52.010;4.446;2023-11-21T00:40:31;11.82;;;8.85;;
46563;SDS011;32291;52.010;4.446;2023-11-21T00:41:38;13.20;;;8.80;;
46563;SDS011;32291;52.010;4.446;2023-11-21T00:42:40;17.98;;;10.07;;
46563;SDS011;32291;52.010;4.446;2023-11-21T00:43:43;18.88;;;10.32;;
46563;SDS011;32291;52.010;4.446;2023-11-21T00:44:50;18.25;;;9.73;;
46563;SDS011;32291;52.010;4.446;2023-11-21T00:45:57;16.15;;;9.65;;
46563;SDS011;32291;52.010;4.446;2023-11-21T00:46:59;17.73;;;10.25;;
46563;SDS011;32291;52.010;4.446;2023-11-21T00:48:01;18.55;;;9.82;;
46563;SDS011;32291;52.010;4.446;2023-11-21T00:49:06;14.88;;;9.20;;
46563;SDS011;32291;52.010;4.446;2023-11-21T00:50:13;20.50;;;10.30;;
46563;SDS011;32291;52.010;4.446;2023-11-21T00:51:21;19.45;;;9.75;;
46563;SDS011;32291;52.010;4.446;2023-11-21T00:52:28;13.55;;;8.65;;
46563;SDS011;32291;52.010;4.446;2023-11-21T00:53:35;16.52;;;9.52;;
46563;SDS011;32291;52.010;4.446;2023-11-21T00:54:42;18.52;;;9.50;;
46563;SDS011;32291;52.010;4.446;2023-11-21T00:55:49;17.40;;;9.75;;
46563;SDS011;32291;52.010;4.446;2023-11-21T00:56:55;19.70;;;9.82;;
46563;SDS011;32291;52.010;4.446;2023-11-21T00:58:02;15.38;;;9.70;;
46563;SDS011;32291;52.010;4.446;2023-11-21T00:59:10;14.93;;;9.73;;
46563;SDS011;32291;52.010;4.446;2023-11-21T01:00:17;20.52;;;10.73;;
46563;SDS011;32291;52.010;4.446;2023-11-21T01:01:24;19.58;;;10.10;;
46563;SDS011;32291;52.010;4.446;2023-11-21T01:02:30;15.43;;;10.23;;
46563;SDS011;32291;52.010;4.446;2023-11-21T01:03:37;20.08;;;10.23;;
46563;SDS011;32291;52.010;4.446;2023-11-21T01:04:44;14.50;;;9.98;;
46563;SDS011;32291;52.010;4.446;2023-11-21T01:05:51;17.15;;;9.30;;
46563;SDS011;32291;52.010;4.446;2023-11-21T01:06:58;17.15;;;9.82;;
46563;SDS011;32291;52.010;4.446;2023-11-21T01:08:04;18.23;;;9.15;;
46563;SDS011;32291;52.010;4.446;2023-11-21T01:09:11;15.85;;;9.60;;
46563;SDS011;32291;52.010;4.446;2023-11-21T01:10:18;18.55;;;10.07;;
46563;SDS011;32291;52.010;4.446;2023-11-21T01:11:25;16.48;;;9.13;;
46563;SDS011;32291;52.010;4.446;2023-11-21T01:12:32;18.65;;;10.48;;
46563;SDS011;32291;52.010;4.446;2023-11-21T01:13:41;26.05;;;10.88;;
46563;SDS011;32291;52.010;4.446;2023-11-21T01:14:48;14.35;;;8.90;;
46563;SDS011;32291;52.010;4.446;2023-11-21T01:15:56;16.35;;;9.35;;
46563;SDS011;32291;52.010;4.446;2023-11-21T01:17:03;19.98;;;9.40;;
46563;SDS011;32291;52.010;4.446;2023-11-21T01:18:11;22.77;;;10.63;;
46563;SDS011;32291;52.010;4.446;2023-11-21T01:19:13;20.42;;;10.25;;
46563;SDS011;32291;52.010;4.446;2023-11-21T01:20:20;18.20;;;9.40;;
46563;SDS011;32291;52.010;4.446;2023-11-21T01:21:27;15.77;;;9.43;;
46563;SDS011;32291;52.010;4.446;2023-11-21T01:22:34;26.23;;;10.07;;
46563;SDS011;32291;52.010;4.446;2023-11-21T01:23:41;14.43;;;9.52;;
46563;SDS011;32291;52.010;4.446;2023-11-21T01:24:48;18.92;;;9.57;;
46563;SDS011;32291;52.010;4.446;2023-11-21T01:25:56;17.60;;;9.65;;
46563;SDS011;32291;52.010;4.446;2023-11-21T01:27:03;22.42;;;10.65;;
46563;SDS011;32291;52.010;4.446;2023-11-21T01:28:10;20.15;;;10.68;;
46563;SDS011;32291;52.010;4.446;2023-11-21T01:29:12;12.40;;;8.88;;
46563;SDS011;32291;52.010;4.446;2023-11-21T01:30:19;18.38;;;8.75;;
46563;SDS011;32291;52.010;4.446;2023-11-21T01:31:21;16.40;;;8.77;;
46563;SDS011;32291;52.010;4.446;2023-11-21T01:32:23;20.17;;;10.65;;
46563;SDS011;32291;52.010;4.446;2023-11-21T01:33:25;19.75;;;9.05;;
46563;SDS011;32291;52.010;4.446;2023-11-21T01:34:27;15.65;;;9.00;;
46563;SDS011;32291;52.010;4.446;2023-11-21T01:35:29;17.80;;;8.77;;
46563;SDS011;32291;52.010;4.446;2023-11-21T01:36:36;16.38;;;9.95;;
46563;SDS011;32291;52.010;4.446;2023-11-21T01:37:43;10.90;;;8.85;;
46563;SDS011;32291;52.010;4.446;2023-11-21T01:38:50;14.55;;;9.10;;
46563;SDS011;32291;52.010;4.446;2023-11-21T01:39:56;15.10;;;8.93;;
46563;SDS011;32291;52.010;4.446;2023-11-21T01:41:05;18.40;;;9.15;;
46563;SDS011;32291;52.010;4.446;2023-11-21T01:42:12;18.63;;;9.02;;
46563;SDS011;32291;52.010;4.446;2023-11-21T01:43:15;12.65;;;8.25;;
46563;SDS011;32291;52.010;4.446;2023-11-21T01:44:22;13.88;;;9.40;;
46563;SDS011;32291;52.010;4.446;2023-11-21T01:45:30;21.38;;;9.50;;
46563;SDS011;32291;52.010;4.446;2023-11-21T01:46:39;16.05;;;8.00;;
46563;SDS011;32291;52.010;4.446;2023-11-21T01:47:42;17.15;;;9.75;;
46563;SDS011;32291;52.010;4.446;2023-11-21T01:48:47;17.23;;;10.27;;
46563;SDS011;32291;52.010;4.446;2023-11-21T01:49:55;16.13;;;9.98;;
46563;SDS011;32291;52.010;4.446;2023-11-21T01:50:57;15.45;;;9.60;;
46563;SDS011;32291;52.010;4.446;2023-11-21T01:52:05;17.48;;;9.75;;
46563;SDS011;32291;52.010;4.446;2023-11-21T01:53:12;21.55;;;9.82;;
46563;SDS011;32291;52.010;4.446;2023-11-21T01:54:20;16.38;;;9.57;;
46563;SDS011;32291;52.010;4.446;2023-11-21T01:55:28;15.25;;;9.32;;
46563;SDS011;32291;52.010;4.446;2023-11-21T01:56:35;20.10;;;9.70;;
46563;SDS011;32291;52.010;4.446;2023-11-21T01:57:43;12.80;;;8.95;;
46563;SDS011;32291;52.010;4.446;2023-11-21T01:58:46;16.38;;;9.30;;
46563;SDS011;32291;52.010;4.446;2023-11-21T01:59:48;17.67;;;9.35;;
46563;SDS011;32291;52.010;4.446;2023-11-21T02:00:56;18.92;;;9.65;;
46563;SDS011;32291;52.010;4.446;2023-11-21T02:02:04;17.92;;;9.55;;
46563;SDS011;32291;52.010;4.446;2023-11-21T02:03:15;17.25;;;9.18;;
46563;SDS011;32291;52.010;4.446;2023-11-21T02:04:17;16.33;;;9.10;;
46563;SDS011;32291;52.010;4.446;2023-11-21T02:05:25;15.80;;;9.60;;
46563;SDS011;32291;52.010;4.446;2023-11-21T02:06:32;17.45;;;9.73;;
46563;SDS011;32291;52.010;4.446;2023-11-21T02:07:40;16.80;;;8.75;;
46563;SDS011;32291;52.010;4.446;2023-11-21T02:08:51;14.73;;;9.13;;
46563;SDS011;32291;52.010;4.446;2023-11-21T02:09:53;13.60;;;9.05;;
46563;SDS011;32291;52.010;4.446;2023-11-21T02:10:54;14.93;;;8.32;;
46563;SDS011;32291;52.010;4.446;2023-11-21T02:11:57;11.90;;;8.52;;
46563;SDS011;32291;52.010;4.446;2023-11-21T02:13:06;15.98;;;8.85;;
46563;SDS011;32291;52.010;4.446;2023-11-21T02:14:13;12.05;;;8.82;;
46563;SDS011;32291;52.010;4.446;2023-11-21T02:15:20;17.83;;;9.85;;
46563;SDS011;32291;52.010;4.446;2023-11-21T02:16:29;13.10;;;8.07;;
46563;SDS011;32291;52.010;4.446;2023-11-21T02:17:32;12.98;;;9.00;;
46563;SDS011;32291;52.010;4.446;2023-11-21T02:18:39;16.77;;;8.38;;
46563;SDS011;32291;52.010;4.446;2023-11-21T02:19:41;15.07;;;9.07;;
46563;SDS011;32291;52.010;4.446;2023-11-21T02:20:48;17.85;;;9.90;;
46563;SDS011;32291;52.010;4.446;2023-11-21T02:21:51;13.98;;;9.55;;
46563;SDS011;32291;52.010;4.446;2023-11-21T02:22:54;16.90;;;8.75;;
46563;SDS011;32291;52.010;4.446;2023-11-21T02:24:01;17.20;;;10.30;;
46563;SDS011;32291;52.010;4.446;2023-11-21T02:25:03;13.02;;;7.75;;
46563;SDS011;32291;52.010;4.446;2023-11-21T02:26:10;16.80;;;9.02;;
46563;SDS011;32291;52.010;4.446;2023-11-21T02:27:17;15.35;;;9.05;;
46563;SDS011;32291;52.010;4.446;2023-11-21T02:28:27;15.45;;;9.35;;
46563;SDS011;32291;52.010;4.446;2023-11-21T02:29:34;14.70;;;8.68;;
46563;SDS011;32291;52.010;4.446;2023-11-21T02:30:41;13.13;;;8.77;;
46563;SDS011;32291;52.010;4.446;2023-11-21T02:31:51;15.93;;;9.35;;
46563;SDS011;32291;52.010;4.446;2023-11-21T02:33:00;11.75;;;8.85;;
46563;SDS011;32291;52.010;4.446;2023-11-21T02:34:08;16.45;;;8.57;;
46563;SDS011;32291;52.010;4.446;2023-11-21T02:35:14;18.92;;;8.52;;
46563;SDS011;32291;52.010;4.446;2023-11-21T02:36:22;14.18;;;7.90;;
46563;SDS011;32291;52.010;4.446;2023-11-21T02:37:29;14.50;;;7.80;;
46563;SDS011;32291;52.010;4.446;2023-11-21T02:38:36;12.18;;;7.93;;
46563;SDS011;32291;52.010;4.446;2023-11-21T02:39:38;13.10;;;7.63;;
46563;SDS011;32291;52.010;4.446;2023-11-21T02:40:40;15.27;;;8.07;;
46563;SDS011;32291;52.010;4.446;2023-11-21T02:41:44;11.23;;;8.45;;
46563;SDS011;32291;52.010;4.446;2023-11-21T02:42:51;14.73;;;8.60;;
46563;SDS011;32291;52.010;4.446;2023-11-21T02:43:58;15.77;;;8.63;;
46563;SDS011;32291;52.010;4.446;2023-11-21T02:45:06;12.05;;;8.27;;
46563;SDS011;32291;52.010;4.446;2023-11-21T02:46:14;13.02;;;8.40;;
46563;SDS011;32291;52.010;4.446;2023-11-21T02:47:16;12.35;;;8.00;;
46563;SDS011;32291;52.010;4.446;2023-11-21T02:48:23;12.88;;;8.88;;
46563;SDS011;32291;52.010;4.446;2023-11-21T02:49:31;16.15;;;7.90;;
46563;SDS011;32291;52.010;4.446;2023-11-21T02:50:40;10.10;;;7.60;;
46563;SDS011;32291;52.010;4.446;2023-11-21T02:51:49;11.65;;;8.05;;
46563;SDS011;32291;52.010;4.446;2023-11-21T02:52:55;12.30;;;7.93;;
46563;SDS011;32291;52.010;4.446;2023-11-21T02:54:06;15.95;;;8.57;;
46563;SDS011;32291;52.010;4.446;2023-11-21T02:55:14;15.15;;;8.77;;
46563;SDS011;32291;52.010;4.446;2023-11-21T02:56:21;14.30;;;8.07;;
46563;SDS011;32291;52.010;4.446;2023-11-21T02:57:28;9.60;;;7.55;;
46563;SDS011;32291;52.010;4.446;2023-11-21T02:58:30;13.85;;;7.75;;
46563;SDS011;32291;52.010;4.446;2023-11-21T02:59:37;8.68;;;7.03;;
46563;SDS011;32291;52.010;4.446;2023-11-21T03:00:44;8.48;;;7.47;;
46563;SDS011;32291;52.010;4.446;2023-11-21T03:01:51;10.80;;;7.78;;
46563;SDS011;32291;52.010;4.446;2023-11-21T03:02:57;15.30;;;7.45;;
46563;SDS011;32291;52.010;4.446;2023-11-21T03:04:04;11.75;;;8.00;;
46563;SDS011;32291;52.010;4.446;2023-11-21T03:05:11;9.43;;;8.02;;
46563;SDS011;32291;52.010;4.446;2023-11-21T03:06:18;13.23;;;8.68;;
46563;SDS011;32291;52.010;4.446;2023-11-21T03:07:25;12.20;;;7.78;;
46563;SDS011;32291;52.010;4.446;2023-11-21T03:08:32;12.90;;;7.68;;
46563;SDS011;32291;52.010;4.446;2023-11-21T03:09:39;13.25;;;7.88;;
46563;SDS011;32291;52.010;4.446;2023-11-21T03:10:41;16.92;;;8.02;;
46563;SDS011;32291;52.010;4.446;2023-11-21T03:11:43;10.50;;;7.60;;
46563;SDS011;32291;52.010;4.446;2023-11-21T03:12:50;14.48;;;8.63;;
46563;SDS011;32291;52.010;4.446;2023-11-21T03:13:56;11.93;;;8.40;;
46563;SDS011;32291;52.010;4.446;2023-11-21T03:15:04;14.13;;;8.68;;
46563;SDS011;32291;52.010;4.446;2023-11-21T03:16:08;12.80;;;8.25;;
46563;SDS011;32291;52.010;4.446;2023-11-21T03:17:12;11.98;;;8.30;;
46563;SDS011;32291;52.010;4.446;2023-11-21T03:18:21;17.55;;;9.50;;
46563;SDS011;32291;52.010;4.446;2023-11-21T03:19:30;11.90;;;9.05;;
46563;SDS011;32291;52.010;4.446;2023-11-21T03:20:37;13.95;;;8.93;;
46563;SDS011;32291;52.010;4.446;2023-11-21T03:21:44;13.75;;;9.02;;
46563;SDS011;32291;52.010;4.446;2023-11-21T03:22:46;18.17;;;9.65;;
46563;SDS011;32291;52.010;4.446;2023-11-21T03:23:53;17.38;;;9.20;;
46563;SDS011;32291;52.010;4.446;2023-11-21T03:25:00;17.08;;;8.50;;
46563;SDS011;32291;52.010;4.446;2023-11-21T03:26:03;15.23;;;9.10;;
46563;SDS011;32291;52.010;4.446;2023-11-21T03:27:05;14.65;;;8.82;;
46563;SDS011;32291;52.010;4.446;2023-11-21T03:28:12;12.18;;;8.25;;
46563;SDS011;32291;52.010;4.446;2023-11-21T03:29:19;13.35;;;8.48;;
46563;SDS011;32291;52.010;4.446;2023-11-21T03:30:26;12.65;;;8.18;;
46563;SDS011;32291;52.010;4.446;2023-11-21T03:31:28;15.77;;;8.30;;
46563;SDS011;32291;52.010;4.446;2023-11-21T03:32:35;11.50;;;8.15;;
46563;SDS011;32291;52.010;4.446;2023-11-21T03:33:41;14.35;;;9.70;;
46563;SDS011;32291;52.010;4.446;2023-11-21T03:34:55;16.40;;;8.55;;
46563;SDS011;32291;52.010;4.446;2023-11-21T03:36:04;20.13;;;10.00;;
46563;SDS011;32291;52.010;4.446;2023-11-21T03:37:11;15.20;;;9.98;;
46563;SDS011;32291;52.010;4.446;2023-11-21T03:38:13;17.83;;;10.45;;
46563;SDS011;32291;52.010;4.446;2023-11-21T03:39:20;15.75;;;10.05;;
46563;SDS011;32291;52.010;4.446;2023-11-21T03:40:28;13.95;;;9.75;;
46563;SDS011;32291;52.010;4.446;2023-11-21T03:41:34;19.52;;;9.00;;
46563;SDS011;32291;52.010;4.446;2023-11-21T03:42:41;11.40;;;9.27;;
46563;SDS011;32291;52.010;4.446;2023-11-21T03:43:48;12.32;;;8.57;;
46563;SDS011;32291;52.010;4.446;2023-11-21T03:44:56;14.82;;;9.20;;
46563;SDS011;32291;52.010;4.446;2023-11-21T03:46:03;17.15;;;9.93;;
46563;SDS011;32291;52.010;4.446;2023-11-21T03:47:10;17.80;;;9.57;;
46563;SDS011;32291;52.010;4.446;2023-11-21T03:48:13;10.93;;;8.77;;
46563;SDS011;32291;52.010;4.446;2023-11-21T03:49:19;14.60;;;9.38;;
46563;SDS011;32291;52.010;4.446;2023-11-21T03:50:21;13.48;;;8.70;;
46563;SDS011;32291;52.010;4.446;2023-11-21T03:51:23;12.93;;;8.25;;
46563;SDS011;32291;52.010;4.446;2023-11-21T03:52:30;13.35;;;8.73;;
46563;SDS011;32291;52.010;4.446;2023-11-21T03:53:37;15.13;;;9.13;;
46563;SDS011;32291;52.010;4.446;2023-11-21T03:54:39;17.50;;;9.35;;
46563;SDS011;32291;52.010;4.446;2023-11-21T03:55:41;16.52;;;9.23;;
46563;SDS011;32291;52.010;4.446;2023-11-21T03:56:48;17.25;;;9.90;;
46563;SDS011;32291;52.010;4.446;2023-11-21T03:57:55;18.27;;;9.23;;
46563;SDS011;32291;52.010;4.446;2023-11-21T03:59:03;19.20;;;9.15;;
46563;SDS011;32291;52.010;4.446;2023-11-21T04:00:10;15.00;;;8.57;;
46563;SDS011;32291;52.010;4.446;2023-11-21T04:01:23;11.73;;;8.65;;
46563;SDS011;32291;52.010;4.446;2023-11-21T04:02:26;12.63;;;8.60;;
46563;SDS011;32291;52.010;4.446;2023-11-21T04:03:34;13.95;;;8.50;;
46563;SDS011;32291;52.010;4.446;2023-11-21T04:04:41;19.25;;;9.80;;
46563;SDS011;32291;52.010;4.446;2023-11-21T04:05:48;13.00;;;9.45;;
46563;SDS011;32291;52.010;4.446;2023-11-21T04:06:50;15.32;;;9.32;;
46563;SDS011;32291;52.010;4.446;2023-11-21T04:08:00;14.50;;;10.05;;
46563;SDS011;32291;52.010;4.446;2023-11-21T04:09:02;13.52;;;9.55;;
46563;SDS011;32291;52.010;4.446;2023-11-21T04:10:10;16.17;;;9.43;;
46563;SDS011;32291;52.010;4.446;2023-11-21T04:11:19;13.90;;;9.38;;
46563;SDS011;32291;52.010;4.446;2023-11-21T04:12:25;14.32;;;9.82;;
46563;SDS011;32291;52.010;4.446;2023-11-21T04:13:27;14.50;;;9.23;;
46563;SDS011;32291;52.010;4.446;2023-11-21T04:14:34;15.07;;;10.25;;
46563;SDS011;32291;52.010;4.446;2023-11-21T04:15:42;15.35;;;9.38;;
46563;SDS011;32291;52.010;4.446;2023-11-21T04:16:48;17.45;;;9.80;;
46563;SDS011;32291;52.010;4.446;2023-11-21T04:17:55;17.52;;;9.55;;
46563;SDS011;32291;52.010;4.446;2023-11-21T04:19:02;14.57;;;9.70;;
46563;SDS011;32291;52.010;4.446;2023-11-21T04:20:09;12.68;;;9.13;;
46563;SDS011;32291;52.010;4.446;2023-11-21T04:21:12;14.38;;;9.00;;
46563;SDS011;32291;52.010;4.446;2023-11-21T04:22:14;15.27;;;8.90;;
46563;SDS011;32291;52.010;4.446;2023-11-21T04:23:16;13.45;;;9.77;;
46563;SDS011;32291;52.010;4.446;2023-11-21T04:24:23;17.88;;;9.65;;
46563;SDS011;32291;52.010;4.446;2023-11-21T04:25:30;10.95;;;9.23;;
46563;SDS011;32291;52.010;4.446;2023-11-21T04:26:37;15.32;;;9.38;;
46563;SDS011;32291;52.010;4.446;2023-11-21T04:27:44;15.93;;;9.73;;
46563;SDS011;32291;52.010;4.446;2023-11-21T04:28:51;11.55;;;9.02;;
46563;SDS011;32291;52.010;4.446;2023-11-21T04:29:58;16.13;;;9.40;;
46563;SDS011;32291;52.010;4.446;2023-11-21T04:31:05;17.98;;;8.85;;
46563;SDS011;32291;52.010;4.446;2023-11-21T04:32:13;11.68;;;8.98;;
46563;SDS011;32291;52.010;4.446;2023-11-21T04:33:19;10.65;;;8.50;;
46563;SDS011;32291;52.010;4.446;2023-11-21T04:34:22;13.80;;;9.50;;
46563;SDS011;32291;52.010;4.446;2023-11-21T04:35:29;12.55;;;8.88;;
46563;SDS011;32291;52.010;4.446;2023-11-21T04:36:31;16.08;;;8.98;;
46563;SDS011;32291;52.010;4.446;2023-11-21T04:37:38;15.88;;;9.57;;
46563;SDS011;32291;52.010;4.446;2023-11-21T04:38:41;14.77;;;8.80;;
46563;SDS011;32291;52.010;4.446;2023-11-21T04:39:43;11.82;;;9.00;;
46563;SDS011;32291;52.010;4.446;2023-11-21T04:40:45;15.63;;;8.95;;
46563;SDS011;32291;52.010;4.446;2023-11-21T04:41:51;13.27;;;8.95;;
46563;SDS011;32291;52.010;4.446;2023-11-21T04:42:58;11.68;;;8.15;;
46563;SDS011;32291;52.010;4.446;2023-11-21T04:44:00;9.40;;;8.40;;
46563;SDS011;32291;52.010;4.446;2023-11-21T04:45:04;14.05;;;9.25;;
46563;SDS011;32291;52.010;4.446;2023-11-21T04:46:15;12.80;;;8.20;;
46563;SDS011;32291;52.010;4.446;2023-11-21T04:47:21;10.52;;;7.85;;
46563;SDS011;32291;52.010;4.446;2023-11-21T04:48:28;14.30;;;8.60;;
46563;SDS011;32291;52.010;4.446;2023-11-21T04:49:35;15.15;;;9.40;;
46563;SDS011;32291;52.010;4.446;2023-11-21T04:50:42;12.52;;;8.77;;
46563;SDS011;32291;52.010;4.446;2023-11-21T04:51:44;13.00;;;9.18;;
46563;SDS011;32291;52.010;4.446;2023-11-21T04:52:51;17.17;;;9.15;;
46563;SDS011;32291;52.010;4.446;2023-11-21T04:53:58;13.18;;;8.45;;
46563;SDS011;32291;52.010;4.446;2023-11-21T04:55:04;14.88;;;8.48;;
46563;SDS011;32291;52.010;4.446;2023-11-21T04:56:15;14.90;;;8.52;;
46563;SDS011;32291;52.010;4.446;2023-11-21T04:57:17;12.02;;;8.90;;
46563;SDS011;32291;52.010;4.446;2023-11-21T04:58:24;13.10;;;8.75;;
46563;SDS011;32291;52.010;4.446;2023-11-21T04:59:31;18.88;;;9.90;;
46563;SDS011;32291;52.010;4.446;2023-11-21T05:00:38;15.50;;;9.48;;
46563;SDS011;32291;52.010;4.446;2023-11-21T05:01:45;16.48;;;8.82;;
46563;SDS011;32291;52.010;4.446;2023-11-21T05:02:52;10.35;;;8.40;;
46563;SDS011;32291;52.010;4.446;2023-11-21T05:03:58;15.80;;;8.85;;
46563;SDS011;32291;52.010;4.446;2023-11-21T05:05:01;15.27;;;8.93;;
46563;SDS011;32291;52.010;4.446;2023-11-21T05:06:11;15.75;;;8.98;;
46563;SDS011;32291;52.010;4.446;2023-11-21T05:07:14;12.93;;;8.60;;
46563;SDS011;32291;52.010;4.446;2023-11-21T05:08:22;13.45;;;8.90;;
46563;SDS011;32291;52.010;4.446;2023-11-21T05:09:29;13.90;;;8.40;;
46563;SDS011;32291;52.010;4.446;2023-11-21T05:10:38;12.50;;;8.60;;
46563;SDS011;32291;52.010;4.446;2023-11-21T05:11:45;14.85;;;8.57;;
46563;SDS011;32291;52.010;4.446;2023-11-21T05:12:52;15.63;;;8.45;;
46563;SDS011;32291;52.010;4.446;2023-11-21T05:13:54;12.32;;;8.40;;
46563;SDS011;32291;52.010;4.446;2023-11-21T05:15:05;13.77;;;8.73;;
46563;SDS011;32291;52.010;4.446;2023-11-21T05:16:17;15.55;;;8.95;;
46563;SDS011;32291;52.010;4.446;2023-11-21T05:17:24;12.70;;;8.77;;
46563;SDS011;32291;52.010;4.446;2023-11-21T05:18:31;12.38;;;8.32;;
46563;SDS011;32291;52.010;4.446;2023-11-21T05:19:38;16.35;;;9.63;;
46563;SDS011;32291;52.010;4.446;2023-11-21T05:20:46;25.55;;;11.00;;
46563;SDS011;32291;52.010;4.446;2023-11-21T05:21:53;17.35;;;9.40;;
46563;SDS011;32291;52.010;4.446;2023-11-21T05:23:00;19.40;;;10.43;;
46563;SDS011;32291;52.010;4.446;2023-11-21T05:24:07;19.52;;;10.18;;
46563;SDS011;32291;52.010;4.446;2023-11-21T05:25:14;16.40;;;9.80;;
46563;SDS011;32291;52.010;4.446;2023-11-21T05:26:18;22.05;;;9.73;;
46563;SDS011;32291;52.010;4.446;2023-11-21T05:27:25;18.02;;;9.32;;
46563;SDS011;32291;52.010;4.446;2023-11-21T05:28:31;19.60;;;9.20;;
46563;SDS011;32291;52.010;4.446;2023-11-21T05:29:38;19.17;;;9.65;;
46563;SDS011;32291;52.010;4.446;2023-11-21T05:30:45;17.52;;;10.52;;
46563;SDS011;32291;52.010;4.446;2023-11-21T05:31:52;15.75;;;9.65;;
46563;SDS011;32291;52.010;4.446;2023-11-21T05:32:59;19.20;;;10.43;;
46563;SDS011;32291;52.010;4.446;2023-11-21T05:34:06;24.13;;;11.00;;
46563;SDS011;32291;52.010;4.446;2023-11-21T05:35:12;34.88;;;11.48;;
46563;SDS011;32291;52.010;4.446;2023-11-21T05:36:21;21.88;;;10.82;;
46563;SDS011;32291;52.010;4.446;2023-11-21T05:37:28;21.88;;;11.07;;
46563;SDS011;32291;52.010;4.446;2023-11-21T05:38:31;22.55;;;10.48;;
46563;SDS011;32291;52.010;4.446;2023-11-21T05:39:33;23.52;;;10.55;;
46563;SDS011;32291;52.010;4.446;2023-11-21T05:40:35;22.80;;;10.43;;
46563;SDS011;32291;52.010;4.446;2023-11-21T05:41:43;17.83;;;10.00;;
46563;SDS011;32291;52.010;4.446;2023-11-21T05:42:50;15.77;;;9.45;;
46563;SDS011;32291;52.010;4.446;2023-11-21T05:43:57;21.48;;;9.93;;
46563;SDS011;32291;52.010;4.446;2023-11-21T05:45:04;20.75;;;10.63;;
46563;SDS011;32291;52.010;4.446;2023-11-21T05:46:17;22.38;;;10.00;;
46563;SDS011;32291;52.010;4.446;2023-11-21T05:47:24;23.95;;;10.68;;
46563;SDS011;32291;52.010;4.446;2023-11-21T05:48:32;21.30;;;9.95;;
46563;SDS011;32291;52.010;4.446;2023-11-21T05:49:39;16.08;;;9.35;;
46563;SDS011;32291;52.010;4.446;2023-11-21T05:50:41;20.38;;;9.85;;
46563;SDS011;32291;52.010;4.446;2023-11-21T05:51:48;17.05;;;8.75;;
46563;SDS011;32291;52.010;4.446;2023-11-21T05:52:54;18.10;;;8.75;;
46563;SDS011;32291;52.010;4.446;2023-11-21T05:54:01;16.52;;;8.68;;
46563;SDS011;32291;52.010;4.446;2023-11-21T05:55:08;13.57;;;7.78;;
46563;SDS011;32291;52.010;4.446;2023-11-21T05:56:11;14.75;;;7.78;;
46563;SDS011;32291;52.010;4.446;2023-11-21T05:57:19;16.90;;;8.20;;
46563;SDS011;32291;52.010;4.446;2023-11-21T05:58:21;16.10;;;8.10;;
46563;SDS011;32291;52.010;4.446;2023-11-21T05:59:29;13.70;;;7.55;;
46563;SDS011;32291;52.010;4.446;2023-11-21T06:00:36;14.07;;;7.95;;
46563;SDS011;32291;52.010;4.446;2023-11-21T06:01:38;12.20;;;7.65;;
46563;SDS011;32291;52.010;4.446;2023-11-21T06:02:45;9.30;;;6.60;;
46563;SDS011;32291;52.010;4.446;2023-11-21T06:03:56;12.07;;;7.32;;
46563;SDS011;32291;52.010;4.446;2023-11-21T06:05:03;12.73;;;7.55;;
46563;SDS011;32291;52.010;4.446;2023-11-21T06:06:12;9.60;;;7.22;;
46563;SDS011;32291;52.010;4.446;2023-11-21T06:07:14;10.10;;;7.50;;
46563;SDS011;32291;52.010;4.446;2023-11-21T06:08:20;13.32;;;7.30;;
46563;SDS011;32291;52.010;4.446;2023-11-21T06:09:22;13.02;;;7.28;;
46563;SDS011;32291;52.010;4.446;2023-11-21T06:10:31;12.55;;;7.22;;
46563;SDS011;32291;52.010;4.446;2023-11-21T06:11:37;11.60;;;7.03;;
46563;SDS011;32291;52.010;4.446;2023-11-21T06:12:45;15.15;;;7.82;;
46563;SDS011;32291;52.010;4.446;2023-11-21T06:13:52;10.80;;;6.90;;
46563;SDS011;32291;52.010;4.446;2023-11-21T06:14:54;11.35;;;7.93;;
46563;SDS011;32291;52.010;4.446;2023-11-21T06:15:57;14.38;;;7.57;;
46563;SDS011;32291;52.010;4.446;2023-11-21T06:17:04;11.23;;;7.75;;
46563;SDS011;32291;52.010;4.446;2023-11-21T06:18:06;12.25;;;7.30;;
46563;SDS011;32291;52.010;4.446;2023-11-21T06:19:11;16.30;;;8.00;;
46563;SDS011;32291;52.010;4.446;2023-11-21T06:20:18;11.38;;;7.60;;
46563;SDS011;32291;52.010;4.446;2023-11-21T06:21:21;13.45;;;7.63;;
46563;SDS011;32291;52.010;4.446;2023-11-21T06:22:28;13.38;;;7.50;;
46563;SDS011;32291;52.010;4.446;2023-11-21T06:23:37;9.80;;;7.00;;
46563;SDS011;32291;52.010;4.446;2023-11-21T06:24:44;11.57;;;6.88;;
46563;SDS011;32291;52.010;4.446;2023-11-21T06:25:50;9.50;;;6.88;;
46563;SDS011;32291;52.010;4.446;2023-11-21T06:26:57;10.32;;;8.07;;
46563;SDS011;32291;52.010;4.446;2023-11-21T06:28:04;12.43;;;7.63;;
46563;SDS011;32291;52.010;4.446;2023-11-21T06:29:11;11.27;;;8.00;;
46563;SDS011;32291;52.010;4.446;2023-11-21T06:30:13;11.82;;;7.13;;
46563;SDS011;32291;52.010;4.446;2023-11-21T06:31:21;12.70;;;8.57;;
46563;SDS011;32291;52.010;4.446;2023-11-21T06:32:29;13.45;;;8.35;;